createdAt,value
2023-02-11T00:01:42.236Z,101766.56
2023-02-11T00:04:34.726Z,101763.16
2023-02-11T00:07:26.735Z,101767.41
2023-02-11T00:10:13.698Z,101765.50
2023-02-11T00:12:51.574Z,101760.00
2023-02-11T00:15:32.899Z,101764.22
2023-02-11T00:18:18.621Z,101752.53
2023-02-11T00:21:01.791Z,101750.63
2023-02-11T00:23:45.376Z,101746.13
2023-02-11T00:26:27.398Z,101742.72
2023-02-11T00:29:11.627Z,101743.63
2023-02-11T00:32:08.421Z,101748.97
2023-02-11T00:34:44.853Z,101751.25
2023-02-11T00:37:29.394Z,101752.47
2023-02-11T00:40:24.388Z,101748.38
2023-02-11T00:43:11.187Z,101751.31
2023-02-11T00:45:52.879Z,101744.31
2023-02-11T00:48:32.457Z,101740.91
2023-02-11T00:51:24.247Z,101737.56
2023-02-11T00:54:06.574Z,101730.94
2023-02-11T00:56:48.912Z,101722.72
2023-02-11T00:59:40.748Z,101724.88
2023-02-11T01:02:21.261Z,101719.88
2023-02-11T01:05:08.267Z,101705.81
2023-02-11T01:07:57.660Z,101708.09
2023-02-11T01:10:50.351Z,101716.38
2023-02-11T01:13:22.998Z,101707.59
2023-02-11T01:15:53.228Z,101700.25
2023-02-11T01:18:44.074Z,101689.91
2023-02-11T01:21:22.481Z,101689.63
2023-02-11T01:24:06.254Z,101695.25
2023-02-11T01:26:47.272Z,101695.41
2023-02-11T01:29:26.264Z,101699.97
2023-02-11T01:32:12.289Z,101708.47
2023-02-11T01:34:51.295Z,101705.69
2023-02-11T01:37:35.409Z,101697.19
2023-02-11T01:40:34.430Z,101703.63
2023-02-11T01:46:14.311Z,101698.59
2023-02-11T01:49:02.524Z,101690.44
2023-02-11T01:51:52.625Z,101692.50
2023-02-11T01:54:49.171Z,101687.25
2023-02-11T01:57:32.398Z,101675.25
2023-02-11T02:00:47.581Z,101680.38
2023-02-11T02:03:30.274Z,101687.69
2023-02-11T02:07:02.678Z,101698.41
2023-02-11T02:09:59.725Z,101686.63
2023-02-11T02:12:41.548Z,101685.81
2023-02-11T02:15:36.249Z,101683.19
2023-02-11T02:18:40.014Z,101680.63
2023-02-11T02:21:31.053Z,101688.13
2023-02-11T02:24:22.805Z,101681.63
2023-02-11T02:27:10.202Z,101684.81
2023-02-11T02:30:12.159Z,101692.00
2023-02-11T02:33:23.227Z,101684.59
2023-02-11T02:36:31.076Z,101681.13
2023-02-11T02:39:40.091Z,101675.97
2023-02-11T02:42:21.169Z,101675.72
2023-02-11T02:44:59.898Z,101673.56
2023-02-11T02:47:30.275Z,101668.50
2023-02-11T02:49:59.241Z,101668.91
2023-02-11T02:52:43.444Z,101670.16
2023-02-11T02:55:54.669Z,101673.25
2023-02-11T02:58:58.245Z,101670.16
2023-02-11T03:01:36.198Z,101659.28
2023-02-11T03:04:20.290Z,101662.59
2023-02-11T03:07:16.712Z,101655.81
2023-02-11T03:10:30.170Z,101656.22
2023-02-11T03:13:09.639Z,101649.78
2023-02-11T03:16:03.035Z,101643.50
2023-02-11T03:18:42.741Z,101640.19
2023-02-11T03:21:35.030Z,101640.91
2023-02-11T03:24:16.257Z,101636.88
2023-02-11T03:27:05.030Z,101638.69
2023-02-11T03:29:55.215Z,101631.00
2023-02-11T03:32:51.482Z,101623.41
2023-02-11T03:35:34.894Z,101626.78
2023-02-11T03:38:24.792Z,101621.66
2023-02-11T03:41:16.143Z,101616.41
2023-02-11T03:43:53.160Z,101613.00
2023-02-11T03:46:48.254Z,101609.31
2023-02-11T03:49:27.956Z,101604.09
2023-02-11T03:52:29.214Z,101594.50
2023-02-11T03:55:02.869Z,101581.09
2023-02-11T03:57:35.787Z,101584.03
2023-02-11T04:00:20.406Z,101577.13
2023-02-11T04:03:07.667Z,101578.63
2023-02-11T04:05:45.717Z,101574.22
2023-02-11T04:08:30.156Z,101568.53
2023-02-11T04:11:01.274Z,101563.91
2023-02-11T04:13:39.545Z,101563.19
2023-02-11T04:16:24.054Z,101565.09
2023-02-11T04:18:59.012Z,101566.81
2023-02-11T04:21:41.680Z,101571.22
2023-02-11T04:24:30.595Z,101556.28
2023-02-11T04:27:09.267Z,101565.41
2023-02-11T04:29:47.283Z,101564.38
2023-02-11T04:32:27.544Z,101563.56
2023-02-11T04:35:09.524Z,101567.13
2023-02-11T04:37:47.564Z,101566.81
2023-02-11T04:40:26.867Z,101565.81
2023-02-11T04:42:54.524Z,101565.97
2023-02-11T04:45:26.247Z,101568.88
2023-02-11T04:48:05.514Z,101565.66
2023-02-11T04:56:27.466Z,101564.94
2023-02-11T04:59:07.229Z,101563.59
2023-02-11T05:01:58.146Z,101573.19
2023-02-11T05:04:46.927Z,101564.56
2023-02-11T05:07:21.147Z,101575.34
2023-02-11T05:10:10.566Z,101574.53
2023-02-11T05:12:40.329Z,101573.69
2023-02-11T05:15:22.603Z,101570.31
2023-02-11T05:18:04.255Z,101567.72
2023-02-11T05:20:36.828Z,101569.44
2023-02-11T05:23:07.955Z,101568.41
2023-02-11T05:25:46.492Z,101570.69
2023-02-11T05:28:22.275Z,101565.13
2023-02-11T05:31:21.203Z,101572.72
2023-02-11T05:34:08.250Z,101570.00
2023-02-11T05:36:53.689Z,101558.13
2023-02-11T05:39:29.096Z,101555.66
2023-02-11T05:42:04.874Z,101550.47
2023-02-11T05:44:41.194Z,101556.59
2023-02-11T05:47:24.608Z,101558.34
2023-02-11T05:49:56.002Z,101552.13
2023-02-11T05:52:37.422Z,101554.69
2023-02-11T05:55:30.117Z,101559.91
2023-02-11T05:58:02.957Z,101549.34
2023-02-11T06:00:39.085Z,101556.72
2023-02-11T06:03:20.873Z,101557.91
2023-02-11T06:05:50.961Z,101558.88
2023-02-11T06:08:46.870Z,101554.59
2023-02-11T06:11:32.209Z,101548.28
2023-02-11T06:14:15.322Z,101532.56
2023-02-11T06:16:53.583Z,101533.34
2023-02-11T06:19:32.147Z,101531.34
2023-02-11T06:22:07.573Z,101531.25
2023-02-11T06:25:01.389Z,101524.19
2023-02-11T06:27:30.139Z,101519.69
2023-02-11T06:30:05.873Z,101530.31
2023-02-11T06:32:45.934Z,101528.91
2023-02-11T06:35:30.929Z,101535.00
2023-02-11T06:38:13.155Z,101535.16
2023-02-11T06:40:48.466Z,101532.72
2023-02-11T06:43:24.122Z,101528.22
2023-02-11T06:46:12.815Z,101526.69
2023-02-11T06:48:57.072Z,101530.34
2023-02-11T06:51:35.800Z,101540.91
2023-02-11T06:54:08.502Z,101531.81
2023-02-11T06:56:58.068Z,101533.28
2023-02-11T06:59:41.397Z,101532.84
2023-02-11T07:02:19.669Z,101531.00
2023-02-11T07:05:02.037Z,101536.22
2023-02-11T07:07:40.414Z,101530.56
2023-02-11T07:10:23.587Z,101532.41
2023-02-11T07:13:04.641Z,101528.41
2023-02-11T07:15:59.083Z,101522.72
2023-02-11T07:18:34.766Z,101521.38
2023-02-11T07:21:15.074Z,101509.38
2023-02-11T07:24:07.288Z,101510.66
2023-02-11T07:26:43.500Z,101513.19
2023-02-11T07:29:24.263Z,101514.94
2023-02-11T07:32:08.151Z,101512.56
2023-02-11T07:34:48.267Z,101505.94
2023-02-11T07:37:28.536Z,101504.69
2023-02-11T07:40:09.444Z,101503.41
2023-02-11T07:42:45.187Z,101500.81
2023-02-11T07:45:25.039Z,101495.84
2023-02-11T07:48:07.452Z,101495.25
2023-02-11T07:50:42.488Z,101489.06
2023-02-11T07:53:20.173Z,101493.94
2023-02-11T07:55:53.121Z,101489.03
2023-02-11T07:58:34.069Z,101489.91
2023-02-11T08:01:19.172Z,101491.53
2023-02-11T08:03:57.397Z,101483.13
2023-02-11T08:06:36.103Z,101477.16
2023-02-11T08:09:26.928Z,101486.59
2023-02-11T08:12:09.167Z,101482.13
2023-02-11T08:14:47.486Z,101483.72
2023-02-11T08:17:31.043Z,101469.22
2023-02-11T08:20:05.720Z,101475.75
2023-02-11T08:22:51.798Z,101487.25
2023-02-11T08:25:27.506Z,101489.66
2023-02-11T08:28:00.240Z,101491.53
2023-02-11T08:30:33.195Z,101499.41
2023-02-11T08:33:05.357Z,101494.56
2023-02-11T08:35:53.169Z,101499.28
2023-02-11T08:38:34.267Z,101495.38
2023-02-11T08:41:07.565Z,101497.50
2023-02-11T08:43:43.935Z,101499.94
2023-02-11T08:46:20.844Z,101490.19
2023-02-11T08:49:01.502Z,101488.06
2023-02-11T08:51:39.176Z,101495.72
2023-02-11T08:54:12.318Z,101481.66
2023-02-11T08:56:54.101Z,101481.06
2023-02-11T08:59:29.540Z,101485.75
2023-02-11T09:02:04.730Z,101472.53
2023-02-11T09:04:42.085Z,101480.28
2023-02-11T09:07:19.724Z,101470.94
2023-02-11T09:09:54.471Z,101475.28
2023-02-11T09:12:31.739Z,101468.22
2023-02-11T09:15:04.050Z,101465.41
2023-02-11T09:17:40.929Z,101466.63
2023-02-11T09:20:25.690Z,101455.50
2023-02-11T09:23:04.264Z,101455.69
2023-02-11T09:25:44.161Z,101457.94
2023-02-11T09:28:18.885Z,101459.69
2023-02-11T09:30:56.556Z,101456.41
2023-02-11T09:33:35.675Z,101449.78
2023-02-11T09:36:09.715Z,101462.22
2023-02-11T09:38:44.576Z,101456.97
2023-02-11T09:41:29.121Z,101469.47
2023-02-11T09:44:11.961Z,101458.94
2023-02-11T09:46:53.732Z,101443.78
2023-02-11T09:49:48.988Z,101447.19
2023-02-11T09:52:46.758Z,101445.75
2023-02-11T09:55:37.962Z,101442.06
2023-02-11T09:58:20.690Z,101438.41
2023-02-11T10:01:26.915Z,101421.59
2023-02-11T10:04:05.033Z,101433.59
2023-02-11T10:06:49.236Z,101421.31
2023-02-11T10:09:37.904Z,101423.25
2023-02-11T10:13:02.238Z,101430.72
2023-02-11T10:16:05.448Z,101425.56
2023-02-11T10:18:46.550Z,101418.66
2023-02-11T10:21:41.636Z,101413.19
2023-02-11T10:24:12.895Z,101421.00
2023-02-11T10:26:49.292Z,101422.84
2023-02-11T10:29:40.343Z,101405.97
2023-02-11T10:32:37.194Z,101398.34
2023-02-11T10:35:18.543Z,101392.91
2023-02-11T10:37:50.964Z,101385.38
2023-02-11T10:40:31.036Z,101379.16
2023-02-11T10:43:22.733Z,101375.13
2023-02-11T10:46:12.013Z,101374.44
2023-02-11T10:48:53.054Z,101362.97
2023-02-11T10:51:28.516Z,101361.78
2023-02-11T10:54:14.517Z,101358.31
2023-02-11T10:56:55.262Z,101347.38
2023-02-11T10:59:40.336Z,101345.69
2023-02-11T11:02:32.250Z,101339.31
2023-02-11T11:05:17.343Z,101339.97
2023-02-11T11:08:04.117Z,101319.97
2023-02-11T11:10:51.077Z,101321.41
2023-02-11T11:13:37.248Z,101311.81
2023-02-11T11:16:22.345Z,101317.44
2023-02-11T11:19:23.819Z,101313.75
2023-02-11T11:21:57.118Z,101312.31
2023-02-11T11:24:46.833Z,101312.53
2023-02-11T11:27:30.354Z,101319.03
2023-02-11T11:30:11.555Z,101301.66
2023-02-11T11:32:50.773Z,101298.28
2023-02-11T11:35:33.514Z,101294.75
2023-02-11T11:38:15.638Z,101300.19
2023-02-11T11:40:45.382Z,101297.16
2023-02-11T11:43:23.552Z,101308.19
2023-02-11T11:46:07.602Z,101295.94
2023-02-11T11:48:52.703Z,101292.16
2023-02-11T11:51:22.746Z,101282.03
2023-02-11T11:54:12.411Z,101288.03
2023-02-11T11:57:03.557Z,101277.88
2023-02-11T11:59:40.031Z,101274.88
2023-02-11T12:02:27.182Z,101268.19
2023-02-11T12:05:17.518Z,101254.94
2023-02-11T12:08:05.506Z,101258.34
2023-02-11T12:10:57.034Z,101246.09
2023-02-11T12:13:49.754Z,101235.00
2023-02-11T12:16:44.057Z,101221.16
2023-02-11T12:19:32.389Z,101217.09
2023-02-11T12:22:20.625Z,101211.13
2023-02-11T12:25:23.021Z,101210.25
2023-02-11T12:28:01.280Z,101209.88
2023-02-11T12:30:38.311Z,101209.22
2023-02-11T12:33:48.864Z,101200.31
2023-02-11T12:36:45.100Z,101205.38
2023-02-11T12:39:43.277Z,101207.44
2023-02-11T12:42:58.968Z,101204.25
2023-02-11T12:45:44.551Z,101197.16
2023-02-11T12:48:39.282Z,101201.38
2023-02-11T12:52:08.057Z,101196.16
2023-02-11T12:55:00.038Z,101185.78
2023-02-11T12:57:47.309Z,101187.69
2023-02-11T13:00:26.072Z,101181.91
2023-02-11T13:03:27.341Z,101171.34
2023-02-11T13:06:24.401Z,101161.69
2023-02-11T13:09:30.056Z,101156.09
2023-02-11T13:12:24.992Z,101144.88
2023-02-11T13:15:10.629Z,101147.84
2023-02-11T13:17:54.454Z,101140.88
2023-02-11T13:20:43.452Z,101134.00
2023-02-11T13:23:37.380Z,101130.09
2023-02-11T13:26:30.800Z,101121.75
2023-02-11T13:29:24.123Z,101121.69
2023-02-11T13:32:23.062Z,101120.81
2023-02-11T13:35:01.528Z,101110.38
2023-02-11T13:37:49.777Z,101110.47
2023-02-11T13:40:34.893Z,101115.22
2023-02-11T13:43:24.445Z,101117.66
2023-02-11T13:46:17.297Z,101127.06
2023-02-11T13:48:59.693Z,101119.41
2023-02-11T13:51:45.167Z,101122.09
2023-02-11T13:54:32.961Z,101127.13
2023-02-11T13:57:24.630Z,101114.75
2023-02-11T14:00:05.272Z,101115.72
2023-02-11T14:03:29.375Z,101115.56
2023-02-11T14:07:11.412Z,101109.97
2023-02-11T14:09:53.525Z,101097.38
2023-02-11T14:12:39.429Z,101099.41
2023-02-11T14:15:41.646Z,101113.50
2023-02-11T14:18:35.394Z,101126.50
2023-02-11T14:21:23.226Z,101125.31
2023-02-11T14:24:15.464Z,101133.56
2023-02-11T14:27:02.426Z,101137.41
2023-02-11T14:29:57.198Z,101143.91
2023-02-11T14:32:39.189Z,101149.94
2023-02-11T14:35:55.549Z,101146.47
2023-02-11T14:39:06.537Z,101154.03
2023-02-11T14:41:45.272Z,101142.84
2023-02-11T14:44:25.449Z,101141.78
2023-02-11T14:47:00.177Z,101136.91
2023-02-11T14:49:45.847Z,101126.81
2023-02-11T14:52:36.372Z,101104.28
2023-02-11T14:55:50.538Z,101105.81
2023-02-11T14:58:34.469Z,101090.72
2023-02-11T15:01:38.511Z,101091.25
2023-02-11T15:04:30.415Z,101088.09
2023-02-11T15:07:11.337Z,101089.59
2023-02-11T15:09:56.551Z,101075.97
2023-02-11T15:12:40.284Z,101085.53
2023-02-11T15:15:27.601Z,101091.03
2023-02-11T15:18:09.614Z,101093.75
2023-02-11T15:20:47.414Z,101093.56
2023-02-11T15:23:31.452Z,101097.78
2023-02-11T15:26:21.903Z,101098.47
2023-02-11T15:28:58.934Z,101087.28
2023-02-11T15:31:39.362Z,101096.19
2023-02-11T15:34:20.607Z,101075.91
2023-02-11T15:36:57.966Z,101075.47
2023-02-11T15:39:41.262Z,101073.75
2023-02-11T15:42:40.861Z,101074.59
2023-02-11T15:45:33.758Z,101067.53
2023-02-11T15:48:17.701Z,101070.44
2023-02-11T15:50:58.945Z,101065.38
2023-02-11T15:53:43.198Z,101050.53
2023-02-11T15:56:46.684Z,101055.88
2023-02-11T15:59:28.623Z,101042.03
2023-02-11T16:02:22.011Z,101032.38
2023-02-11T16:05:08.009Z,101033.22
2023-02-11T16:07:49.926Z,101038.47
2023-02-11T16:10:40.350Z,101028.81
2023-02-11T16:13:16.007Z,101016.78
2023-02-11T16:15:58.394Z,101013.00
2023-02-11T16:18:47.152Z,101011.22
2023-02-11T16:21:39.251Z,101025.34
2023-02-11T16:24:30.756Z,101030.75
2023-02-11T16:27:27.530Z,101031.59
2023-02-11T16:30:05.680Z,101023.75
2023-02-11T16:32:48.971Z,101033.34
2023-02-11T16:35:28.397Z,101038.13
2023-02-11T16:38:07.171Z,101040.69
2023-02-11T16:40:57.613Z,101046.09
2023-02-11T16:43:38.233Z,101041.56
2023-02-11T16:46:20.079Z,101030.72
2023-02-11T16:49:09.986Z,101039.88
2023-02-11T16:51:44.686Z,101042.41
2023-02-11T16:54:26.974Z,101053.28
2023-02-11T16:57:01.524Z,101070.69
2023-02-11T16:59:39.147Z,101073.09
2023-02-11T17:02:36.945Z,101073.94
2023-02-11T17:05:20.866Z,101064.22
2023-02-11T17:07:56.022Z,101064.34
2023-02-11T17:10:34.326Z,101053.38
2023-02-11T17:13:11.972Z,101058.75
2023-02-11T17:15:50.261Z,101046.75
2023-02-11T17:18:29.385Z,101050.72
2023-02-11T17:21:02.001Z,101058.72
2023-02-11T17:23:45.874Z,101051.13
2023-02-11T17:26:18.229Z,101050.56
2023-02-11T17:29:00.866Z,101041.16
2023-02-11T17:31:42.655Z,101045.78
2023-02-11T17:34:20.767Z,101060.00
2023-02-11T17:36:58.127Z,101059.00
2023-02-11T17:39:35.780Z,101052.28
2023-02-11T17:42:15.005Z,101049.31
2023-02-11T17:44:52.878Z,101047.22
2023-02-11T17:47:34.114Z,101060.00
2023-02-11T17:50:19.617Z,101057.91
2023-02-11T17:52:55.072Z,101050.84
2023-02-11T17:55:30.257Z,101048.47
2023-02-11T17:58:06.073Z,101033.38
2023-02-11T18:00:55.410Z,101033.25
2023-02-11T18:03:33.745Z,101030.03
2023-02-11T18:06:19.493Z,101020.47
2023-02-11T18:09:05.310Z,101016.69
2023-02-11T18:11:45.630Z,101016.50
2023-02-11T18:14:29.008Z,101022.59
2023-02-11T18:17:29.132Z,101028.22
2023-02-11T18:20:10.581Z,101016.22
2023-02-11T18:22:49.254Z,101011.16
2023-02-11T18:25:31.060Z,101013.28
2023-02-11T18:28:12.340Z,101019.34
2023-02-11T18:30:51.909Z,101007.53
2023-02-11T18:33:25.642Z,101005.84
2023-02-11T18:36:12.134Z,101009.63
2023-02-11T18:38:53.450Z,101018.25
2023-02-11T18:41:29.001Z,101015.00
2023-02-11T18:44:13.733Z,101016.81
2023-02-11T18:46:43.775Z,101015.16
2023-02-11T18:49:22.979Z,101014.97
2023-02-11T18:51:58.793Z,101007.81
2023-02-11T18:54:42.993Z,101010.19
2023-02-11T18:57:18.405Z,101010.91
2023-02-11T18:59:51.668Z,101013.72
2023-02-11T19:02:32.502Z,101028.91
2023-02-11T19:05:11.568Z,101027.63
2023-02-11T19:08:07.766Z,101023.78
2023-02-11T19:10:58.592Z,101021.25
2023-02-11T19:13:41.335Z,101026.56
2023-02-11T19:16:29.879Z,101023.03
2023-02-11T19:19:04.911Z,101017.53
2023-02-11T19:21:49.226Z,101018.94
2023-02-11T19:24:27.971Z,101017.78
2023-02-11T19:27:20.844Z,101021.00
2023-02-11T19:29:59.033Z,101022.28
2023-02-11T19:32:42.650Z,101026.22
2023-02-11T19:35:37.608Z,101025.78
2023-02-11T19:38:15.793Z,101028.38
2023-02-11T19:41:02.049Z,101027.91
2023-02-11T19:43:40.210Z,101023.41
2023-02-11T19:46:20.706Z,101020.28
2023-02-11T19:49:01.601Z,101024.47
2023-02-11T19:51:37.442Z,101022.69
2023-02-11T19:54:10.387Z,101023.41
2023-02-11T19:56:52.674Z,101020.44
2023-02-11T19:59:33.563Z,101011.59
2023-02-11T20:02:12.342Z,101004.16
2023-02-11T20:04:53.112Z,101002.47
2023-02-11T20:07:33.415Z,100997.25
2023-02-11T20:10:06.998Z,101006.19
2023-02-11T20:12:42.674Z,101008.84
2023-02-11T20:15:23.407Z,101001.53
2023-02-11T20:18:06.976Z,101004.16
2023-02-11T20:20:44.310Z,101000.09
2023-02-11T20:23:19.961Z,101002.06
2023-02-11T20:26:00.561Z,101003.22
2023-02-11T20:28:44.260Z,100990.03
2023-02-11T20:31:20.330Z,100988.91
2023-02-11T20:34:00.984Z,100993.13
2023-02-11T20:36:37.996Z,100986.09
2023-02-11T20:39:17.319Z,100989.31
2023-02-11T20:41:57.001Z,100988.66
2023-02-11T20:44:35.941Z,100975.97
2023-02-11T20:47:14.124Z,100981.31
2023-02-11T20:49:52.088Z,100986.00
2023-02-11T20:52:39.753Z,100989.25
2023-02-11T20:55:14.786Z,100991.47
2023-02-11T20:57:53.197Z,100982.59
2023-02-11T21:00:37.209Z,100990.63
2023-02-11T21:03:18.464Z,100981.03
2023-02-11T21:05:51.445Z,100981.72
2023-02-11T21:08:28.618Z,100986.94
2023-02-11T21:11:08.567Z,100987.78
2023-02-11T21:13:43.249Z,100968.09
2023-02-11T21:16:25.213Z,100967.09
2023-02-11T21:19:03.363Z,100972.19
2023-02-11T21:21:44.446Z,100970.94
2023-02-11T21:24:31.145Z,100970.94
2023-02-11T21:27:11.952Z,100974.44
2023-02-11T21:29:54.901Z,100961.78
2023-02-11T21:32:32.601Z,100958.78
2023-02-11T21:35:07.965Z,100959.88
2023-02-11T21:37:55.675Z,100952.28
2023-02-11T21:40:30.904Z,100954.22
2023-02-11T21:43:06.583Z,100969.44
2023-02-11T21:45:48.983Z,100971.00
2023-02-11T21:48:27.339Z,100975.06
2023-02-11T21:51:20.817Z,100979.13
2023-02-11T21:54:10.141Z,100972.69
2023-02-11T21:56:49.914Z,100973.13
2023-02-11T21:59:31.613Z,100973.13
2023-02-11T22:02:12.309Z,100975.66
2023-02-11T22:04:50.380Z,100962.00
2023-02-11T22:07:28.579Z,100963.63
2023-02-11T22:10:00.806Z,100965.00
2023-02-11T22:12:41.617Z,100971.78
2023-02-11T22:15:20.317Z,100963.06
2023-02-11T22:18:01.074Z,100968.72
2023-02-11T22:20:40.016Z,100963.66
2023-02-11T22:23:17.728Z,100967.06
2023-02-11T22:25:57.917Z,100970.56
2023-02-11T22:28:37.133Z,100970.00
2023-02-11T22:31:14.248Z,100981.13
2023-02-11T22:33:50.117Z,100983.09
2023-02-11T22:36:23.195Z,100986.19
2023-02-11T22:39:09.276Z,100994.38
2023-02-11T22:41:47.327Z,101002.78
2023-02-11T22:44:38.493Z,101006.19
2023-02-11T22:47:10.627Z,101003.34
2023-02-11T22:49:48.826Z,101005.31
2023-02-11T22:52:24.868Z,100994.38
2023-02-11T22:55:00.952Z,100993.53
2023-02-11T22:57:44.203Z,100999.25
2023-02-11T23:00:20.942Z,100987.72
2023-02-11T23:02:53.591Z,100984.22
2023-02-11T23:05:30.850Z,100989.56
2023-02-11T23:08:11.257Z,100983.22
2023-02-11T23:10:52.921Z,100990.53
2023-02-11T23:13:36.748Z,100987.19
2023-02-11T23:16:14.646Z,100991.50
2023-02-11T23:18:56.768Z,100982.50
2023-02-11T23:21:37.041Z,100982.09
2023-02-11T23:24:18.044Z,100981.97
2023-02-11T23:27:00.220Z,100976.91
2023-02-11T23:29:38.402Z,100981.84
2023-02-11T23:32:20.019Z,100986.34
2023-02-11T23:34:55.181Z,100980.59
2023-02-11T23:37:36.096Z,100983.09
2023-02-11T23:40:08.737Z,100980.00
2023-02-11T23:42:45.484Z,100987.91
2023-02-11T23:45:19.003Z,100982.81
2023-02-11T23:47:53.728Z,100981.56
2023-02-11T23:50:37.434Z,100999.13
2023-02-11T23:53:19.156Z,100994.06
2023-02-11T23:56:01.081Z,100989.31
2023-02-11T23:58:47.273Z,100994.94
